Time;durP1;ratioP1;P1;durP2;ratioP2;P2;SDS_P1;SDS_P2;PMS_P1;PMS_P2;Temp;Humidity;BMP_temperature;BMP_pressure;BME280_temperature;BME280_humidity;BME280_pressure;Samples;Min_cycle;Max_cycle;Signal;HPM_P1;HPM_P2
2022/08/25 00:01:43;;;;;;;3.13;2.80;;;;;;;21.29;67.21;98176.88;5056650;28;20696;-72
2022/08/25 00:04:12;;;;;;;3.33;3.03;;;;;;;21.23;67.74;98180.72;5057019;28;20189;-73
2022/08/25 00:06:41;;;;;;;3.10;2.80;;;;;;;21.21;67.88;98182.09;5056875;28;20292;-72
2022/08/25 00:09:09;;;;;;;3.37;3.07;;;;;;;21.18;68.01;98177.25;5056964;28;20225;-72
2022/08/25 00:11:37;;;;;;;4.30;3.03;;;;;;;21.16;68.35;98174.03;5056805;28;20207;-72
2022/08/25 00:14:17;;;;;;;3.20;2.90;;;;;;;21.15;68.34;98178.63;5056470;28;20212;-72
2022/08/25 00:16:44;;;;;;;3.70;3.37;;;;;;;21.09;68.61;98178.97;5056434;28;20185;-72
2022/08/25 00:19:15;;;;;;;4.53;3.40;;;;;;;20.99;69.21;98174.47;5056627;28;20324;-72
2022/08/25 00:21:42;;;;;;;3.80;3.00;;;;;;;21.00;69.61;98170.66;5056613;28;20213;-72
2022/08/25 00:24:10;;;;;;;5.07;3.07;;;;;;;20.90;69.81;98167.19;5056296;28;20207;-72
2022/08/25 00:26:42;;;;;;;4.17;3.50;;;;;;;20.83;70.16;98166.69;5056182;28;20205;-72
2022/08/25 00:29:10;;;;;;;4.80;3.10;;;;;;;20.86;69.94;98163.44;5056236;28;20229;-72
2022/08/25 00:31:37;;;;;;;3.90;3.50;;;;;;;20.70;70.70;98168.13;5056172;28;20281;-72
2022/08/25 00:34:05;;;;;;;4.60;3.30;;;;;;;20.61;71.43;98171.72;5056413;28;20291;-72
2022/08/25 00:36:31;;;;;;;3.97;3.03;;;;;;;20.62;71.23;98173.34;5056374;28;20201;-72
2022/08/25 00:38:57;;;;;;;3.37;3.07;;;;;;;20.60;71.60;98170.09;5056244;28;20212;-72
2022/08/25 00:41:25;;;;;;;4.53;3.20;;;;;;;20.57;71.66;98168.75;5055856;28;20592;-72
2022/08/25 00:43:58;;;;;;;4.30;3.50;;;;;;;20.65;71.37;98172.75;5056143;28;20576;-72
2022/08/25 00:46:30;;;;;;;4.97;3.63;;;;;;;20.60;71.74;98176.31;5056187;28;20200;-72
2022/08/25 00:49:28;;;;;;;4.47;3.57;;;;;;;20.56;72.04;98172.56;5056037;28;20190;-72
2022/08/25 00:51:59;;;;;;;4.00;3.07;;;;;;;20.51;72.10;98177.16;5055329;28;20201;-72
2022/08/25 00:54:32;;;;;;;4.43;3.90;;;;;;;20.45;72.33;98176.41;5055715;28;20285;-72
2022/08/25 00:57:00;;;;;;;4.00;3.60;;;;;;;20.49;72.34;98165.84;5055245;28;20280;-72
2022/08/25 00:59:30;;;;;;;5.30;3.57;;;;;;;20.44;72.88;98168.59;5055862;28;20226;-72
2022/08/25 01:01:57;;;;;;;4.30;3.07;;;;;;;20.38;73.21;98167.81;5055476;28;20235;-72
2022/08/25 01:04:24;;;;;;;4.10;3.47;;;;;;;20.42;73.31;98162.63;5055836;28;20237;-72
2022/08/25 01:06:51;;;;;;;3.73;3.43;;;;;;;20.34;73.44;98163.25;5055488;28;20632;-72
2022/08/25 01:09:19;;;;;;;3.93;3.60;;;;;;;20.37;73.27;98157.28;5055687;28;20312;-72
2022/08/25 01:11:47;;;;;;;4.30;3.43;;;;;;;20.24;74.13;98155.19;5055700;28;20568;-72
2022/08/25 01:14:17;;;;;;;4.23;3.43;;;;;;;20.13;74.45;98153.63;5055621;28;20205;-72
2022/08/25 01:16:45;;;;;;;5.50;3.90;;;;;;;20.06;75.07;98150.38;5055271;28;20683;-72
2022/08/25 01:19:15;;;;;;;4.57;3.67;;;;;;;20.09;74.73;98147.16;5055524;28;20229;-72
2022/08/25 01:21:52;;;;;;;4.17;3.77;;;;;;;20.11;74.82;98150.41;5055348;28;20318;-72
2022/08/25 01:24:37;;;;;;;4.20;3.30;;;;;;;20.07;74.82;98152.81;5055489;28;20534;-72
2022/08/25 01:27:04;;;;;;;5.47;3.77;;;;;;;20.05;74.72;98148.75;5055388;28;20193;-72
2022/08/25 01:29:31;;;;;;;5.13;3.50;;;;;;;20.08;74.28;98151.75;5054948;28;20233;-72
2022/08/25 01:32:02;;;;;;;3.50;3.20;;;;;;;20.10;73.74;98156.88;5055824;28;20206;-72
2022/08/25 01:34:31;;;;;;;4.03;3.53;;;;;;;20.10;74.10;98164.97;5055287;28;20196;-72
2022/08/25 01:36:59;;;;;;;3.90;3.47;;;;;;;20.02;74.62;98165.53;5055457;28;20211;-72
2022/08/25 01:39:28;;;;;;;3.40;3.07;;;;;;;20.05;74.20;98163.09;5054711;28;20787;-72
2022/08/25 01:42:03;;;;;;;4.93;3.47;;;;;;;19.83;75.24;98157.22;5055039;28;20278;-72
2022/08/25 01:44:31;;;;;;;3.93;3.50;;;;;;;19.93;74.65;98156.41;5055023;28;20205;-72
2022/08/25 01:46:58;;;;;;;3.50;3.20;;;;;;;19.91;74.75;98158.53;5054969;28;20206;-72
2022/08/25 01:49:24;;;;;;;3.30;3.00;;;;;;;19.81;75.21;98156.69;5054931;28;20229;-72
2022/08/25 01:52:02;;;;;;;3.13;2.90;;;;;;;19.88;74.87;98161.78;5054918;28;20297;-72
2022/08/25 01:54:28;;;;;;;4.53;3.43;;;;;;;19.75;75.46;98157.00;5054638;28;20725;-72
2022/08/25 01:56:55;;;;;;;4.03;2.97;;;;;;;19.75;75.39;98162.41;5054788;28;20288;-72
2022/08/25 01:59:22;;;;;;;6.60;3.30;;;;;;;19.69;75.90;98151.59;5054672;28;20225;-72
2022/08/25 02:01:48;;;;;;;3.73;3.43;;;;;;;19.71;76.00;98147.84;5054651;28;20236;-72
2022/08/25 02:04:15;;;;;;;3.30;3.10;;;;;;;19.75;75.92;98155.09;5054699;28;20292;-72
2022/08/25 02:06:41;;;;;;;3.70;3.40;;;;;;;19.69;76.12;98157.00;5054631;28;20212;-72
2022/08/25 02:09:12;;;;;;;3.90;3.50;;;;;;;19.59;76.42;98157.03;5053521;28;20229;-72
2022/08/25 02:11:41;;;;;;;3.67;3.40;;;;;;;19.60;76.86;98152.44;5054296;28;20280;-72
2022/08/25 02:14:10;;;;;;;3.53;3.23;;;;;;;19.63;75.97;98163.50;5054550;28;20299;-72
2022/08/25 02:16:39;;;;;;;6.13;3.40;;;;;;;19.69;75.44;98161.59;5054189;28;20213;-72
2022/08/25 02:19:08;;;;;;;3.80;3.37;;;;;;;19.59;75.79;98162.41;5054375;28;20335;-72
2022/08/25 02:21:35;;;;;;;3.60;3.20;;;;;;;19.54;76.20;98161.66;5055026;28;20264;-72
2022/08/25 02:24:02;;;;;;;4.13;3.30;;;;;;;19.43;76.87;98160.03;5054037;28;20739;-72
2022/08/25 02:26:29;;;;;;;3.50;3.20;;;;;;;19.39;76.92;98167.03;5053963;28;20212;-72
2022/08/25 02:28:56;;;;;;;3.87;3.40;;;;;;;19.35;77.34;98163.28;5053926;28;20211;-72
2022/08/25 02:31:24;;;;;;;4.97;3.97;;;;;;;19.40;77.76;98161.38;5054228;28;20560;-72
2022/08/25 02:33:52;;;;;;;4.20;3.80;;;;;;;19.38;77.53;98162.75;5053839;28;20664;-72
2022/08/25 02:36:18;;;;;;;4.87;3.60;;;;;;;19.33;77.73;98155.47;5054116;28;20287;-72
2022/08/25 02:38:45;;;;;;;4.17;3.87;;;;;;;19.33;77.45;98165.44;5053998;28;20295;-72
2022/08/25 02:41:16;;;;;;;3.63;3.33;;;;;;;19.41;77.11;98156.81;5053969;28;20280;-72
2022/08/25 02:43:43;;;;;;;3.90;3.53;;;;;;;19.28;77.20;98160.06;5053738;28;20193;-72
2022/08/25 02:46:12;;;;;;;4.23;3.83;;;;;;;19.21;77.68;98154.91;5053948;28;20231;-72
2022/08/25 02:48:40;;;;;;;5.43;4.10;;;;;;;19.20;78.00;98164.09;5053792;28;20284;-72
2022/08/25 02:51:08;;;;;;;4.10;3.80;;;;;;;19.24;77.68;98159.81;5053477;28;20207;-72
2022/08/25 02:53:38;;;;;;;3.87;3.57;;;;;;;19.24;77.86;98154.41;5053491;28;20300;-72
2022/08/25 02:56:06;;;;;;;4.07;3.50;;;;;;;19.22;77.75;98156.56;5053839;28;20186;-72
2022/08/25 02:58:32;;;;;;;4.00;3.63;;;;;;;19.19;77.80;98159.75;5053990;28;20212;-72
2022/08/25 03:00:59;;;;;;;4.37;3.97;;;;;;;19.16;78.18;98156.81;5053575;28;20229;-72
2022/08/25 03:03:25;;;;;;;4.70;4.30;;;;;;;19.22;78.25;98156.56;5053602;28;20208;-72
2022/08/25 03:05:52;;;;;;;4.90;4.30;;;;;;;19.24;77.50;98154.41;5053627;28;20299;-72
2022/08/25 03:08:19;;;;;;;6.63;4.20;;;;;;;19.33;77.21;98152.78;5053624;28;20231;-72
2022/08/25 03:10:45;;;;;;;4.30;4.00;;;;;;;19.29;77.34;98138.22;5053519;28;20307;-72
2022/08/25 03:13:11;;;;;;;4.57;4.07;;;;;;;19.26;77.59;98144.16;5053361;28;20227;-72
2022/08/25 03:15:38;;;;;;;4.30;3.90;;;;;;;19.31;77.50;98146.03;5053515;28;20208;-72
2022/08/25 03:18:05;;;;;;;4.50;4.10;;;;;;;19.32;77.87;98148.44;5052996;28;20205;-72
2022/08/25 03:20:34;;;;;;;4.57;4.17;;;;;;;19.29;77.59;98146.31;5053035;28;20233;-72
2022/08/25 03:23:01;;;;;;;4.97;3.80;;;;;;;19.36;77.20;98146.84;5053278;28;20221;-72
2022/08/25 03:28:12;;;;;;;4.20;3.90;;;;;;;19.26;77.50;98137.94;5053273;28;20536;-72
2022/08/25 03:30:38;;;;;;;4.07;3.67;;;;;;;19.24;77.31;98146.34;5053572;28;20233;-72
2022/08/25 03:33:05;;;;;;;4.50;3.90;;;;;;;19.15;77.86;98149.81;5053056;28;20224;-72
2022/08/25 03:35:31;;;;;;;3.90;3.43;;;;;;;19.07;78.35;98147.66;5053135;28;20232;-72
2022/08/25 03:37:59;;;;;;;3.70;3.40;;;;;;;18.92;79.36;98145.75;5053106;28;20216;-72
2022/08/25 03:40:27;;;;;;;5.23;3.60;;;;;;;18.95;79.26;98149.81;5053119;28;20315;-71
2022/08/25 03:42:54;;;;;;;6.53;3.50;;;;;;;18.92;79.52;98151.16;5052543;28;20323;-72
2022/08/25 03:45:21;;;;;;;4.00;3.60;;;;;;;18.97;79.27;98151.19;5052804;28;20687;-71
2022/08/25 03:47:49;;;;;;;3.57;3.27;;;;;;;19.09;78.85;98142.81;5052943;28;20236;-72
2022/08/25 03:50:18;;;;;;;4.00;3.30;;;;;;;19.04;78.75;98142.78;5053819;28;20283;-71
2022/08/25 03:52:45;;;;;;;5.13;3.93;;;;;;;19.04;78.73;98135.53;5052932;28;20736;-71
2022/08/25 03:55:14;;;;;;;5.53;3.37;;;;;;;19.02;78.79;98142.25;5052856;28;20216;-71
2022/08/25 03:57:40;;;;;;;5.13;3.63;;;;;;;19.03;78.59;98141.19;5052965;28;20205;-71
2022/08/25 04:00:10;;;;;;;3.57;3.33;;;;;;;18.94;79.41;98138.22;5052833;28;20225;-71
2022/08/25 04:02:37;;;;;;;4.27;3.90;;;;;;;18.77;80.28;98132.28;5052646;28;20261;-71
2022/08/25 04:05:04;;;;;;;4.40;3.90;;;;;;;18.76;80.67;98133.38;5053143;28;20296;-71
2022/08/25 04:07:30;;;;;;;5.03;3.80;;;;;;;18.71;80.83;98135.25;5052393;28;20574;-71
2022/08/25 04:09:56;;;;;;;3.80;3.50;;;;;;;18.64;81.20;98129.34;5052732;28;20308;-71
2022/08/25 04:12:23;;;;;;;4.73;4.10;;;;;;;18.61;81.71;98128.00;5052459;28;20300;-71
2022/08/25 04:14:50;;;;;;;4.53;3.63;;;;;;;18.54;82.03;98130.13;5052748;28;20216;-71
2022/08/25 04:17:17;;;;;;;4.67;3.93;;;;;;;18.59;81.84;98134.72;5052656;28;20300;-71
2022/08/25 04:19:43;;;;;;;4.00;3.70;;;;;;;18.48;82.35;98133.09;5052658;28;20225;-71
2022/08/25 04:22:10;;;;;;;5.23;3.70;;;;;;;18.49;82.37;98140.91;5052796;28;20221;-71
2022/08/25 04:24:36;;;;;;;5.80;4.00;;;;;;;18.48;82.71;98144.66;5052283;28;20751;-71
2022/08/25 04:27:03;;;;;;;4.20;3.80;;;;;;;18.53;82.39;98138.47;5052732;28;20305;-71
2022/08/25 04:29:29;;;;;;;3.87;3.47;;;;;;;18.51;82.35;98146.81;5052461;28;20237;-71
2022/08/25 04:31:56;;;;;;;3.90;3.50;;;;;;;18.54;82.31;98143.59;5052998;28;20642;-71
2022/08/25 04:34:25;;;;;;;4.23;3.77;;;;;;;18.44;83.03;98137.38;5055887;28;20205;-71
2022/08/25 04:36:51;;;;;;;5.23;3.60;;;;;;;18.35;83.28;98134.41;5057041;28;20296;-71
2022/08/25 04:39:20;;;;;;;4.27;3.87;;;;;;;18.43;83.39;98128.50;5056006;28;20311;-71
2022/08/25 04:41:50;;;;;;;7.17;4.13;;;;;;;18.34;83.87;98138.19;5056090;28;20233;-71
2022/08/25 04:44:17;;;;;;;5.80;4.70;;;;;;;18.43;84.42;98144.66;5055221;28;20216;-71
2022/08/25 04:46:44;;;;;;;4.93;4.53;;;;;;;18.46;84.54;98132.56;5056427;28;20205;-71
2022/08/25 04:49:12;;;;;;;4.73;4.33;;;;;;;18.58;84.31;98139.28;5055516;28;20316;-71
2022/08/25 04:51:40;;;;;;;6.70;5.03;;;;;;;18.62;84.71;98137.69;5055599;28;20201;-71
2022/08/25 04:54:10;;;;;;;5.97;5.37;;;;;;;18.71;84.90;98135.25;5055277;28;20684;-71
2022/08/25 04:56:40;;;;;;;5.37;4.87;;;;;;;18.70;85.08;98136.34;5055613;28;20223;-71
2022/08/25 04:59:17;;;;;;;6.27;4.77;;;;;;;18.75;85.22;98139.03;5055234;28;20231;-71
2022/08/25 05:01:45;;;;;;;6.00;5.27;;;;;;;18.73;85.21;98141.97;5054652;28;20225;-71
2022/08/25 05:04:14;;;;;;;6.80;5.57;;;;;;;18.75;85.29;98149.81;5054633;28;20209;-71
2022/08/25 05:06:41;;;;;;;6.20;5.60;;;;;;;18.78;85.65;98151.97;5055093;28;20216;-71
2022/08/25 05:09:08;;;;;;;7.00;5.60;;;;;;;18.90;84.46;98158.69;5055792;28;20236;-71
2022/08/25 05:11:34;;;;;;;5.87;5.27;;;;;;;18.91;84.66;98154.13;5055207;28;20207;-71
2022/08/25 05:14:01;;;;;;;9.77;5.60;;;;;;;18.94;83.38;98149.00;5054546;28;20209;-71
2022/08/25 05:16:28;;;;;;;5.83;5.10;;;;;;;18.99;82.39;98156.25;5054965;28;20209;-71
2022/08/25 05:18:55;;;;;;;5.33;4.83;;;;;;;18.95;81.78;98150.63;5055026;28;20240;-71
2022/08/25 05:21:25;;;;;;;5.47;4.97;;;;;;;18.95;81.77;98133.66;5055022;28;20202;-71
2022/08/25 05:23:56;;;;;;;5.37;4.87;;;;;;;19.00;81.91;98130.97;5054851;28;20205;-71
2022/08/25 05:26:23;;;;;;;6.73;5.00;;;;;;;19.03;81.45;98128.53;5055190;28;20556;-72
2022/08/25 05:28:52;;;;;;;5.10;4.63;;;;;;;19.11;81.21;98127.97;5054919;28;20297;-71
2022/08/25 05:31:19;;;;;;;6.27;5.23;;;;;;;19.17;80.79;98136.84;5055296;28;20209;-71
2022/08/25 05:33:46;;;;;;;5.73;5.17;;;;;;;19.12;80.89;98129.59;5054448;28;20687;-71
2022/08/25 05:36:14;;;;;;;6.27;5.13;;;;;;;19.21;80.53;98137.94;5054484;28;20209;-71
2022/08/25 05:38:41;;;;;;;6.10;5.60;;;;;;;19.18;80.73;98135.78;5054409;28;20209;-71
2022/08/25 05:41:11;;;;;;;5.70;5.20;;;;;;;19.28;80.07;98139.28;5054065;28;20655;-71
2022/08/25 05:43:39;;;;;;;5.97;5.30;;;;;;;19.23;79.92;98135.81;5054230;28;20304;-72
2022/08/25 05:46:06;;;;;;;5.43;4.93;;;;;;;19.26;80.03;98141.47;5054519;28;20294;-71
2022/08/25 05:48:34;;;;;;;6.43;5.30;;;;;;;19.26;80.09;98133.38;5054577;28;20208;-71
2022/08/25 05:51:03;;;;;;;5.37;4.83;;;;;;;19.37;79.38;98126.09;5054467;28;20225;-71
2022/08/25 05:53:31;;;;;;;6.13;5.53;;;;;;;19.36;79.72;98127.97;5054578;28;20292;-71
2022/08/25 05:55:59;;;;;;;5.80;4.93;;;;;;;19.38;80.06;98122.31;5053985;28;20237;-72
2022/08/25 05:58:28;;;;;;;7.13;5.43;;;;;;;19.44;80.09;98119.31;5054043;28;20216;-71
2022/08/25 06:00:56;;;;;;;5.97;5.47;;;;;;;19.57;80.07;98120.63;5054274;28;20316;-71
2022/08/25 06:03:22;;;;;;;6.40;5.80;;;;;;;19.62;80.25;98117.91;5053616;28;20230;-71
2022/08/25 06:05:49;;;;;;;7.60;5.60;;;;;;;19.59;80.75;98121.19;5053954;28;20295;-71
2022/08/25 06:08:16;;;;;;;6.20;5.70;;;;;;;19.68;80.19;98116.81;5054298;28;20299;-71
2022/08/25 06:10:42;;;;;;;7.57;5.60;;;;;;;19.83;79.30;98110.53;5054068;28;20320;-71
2022/08/25 06:13:09;;;;;;;7.50;6.80;;;;;;;19.68;79.85;98117.63;5054163;28;20537;-71
2022/08/25 06:15:35;;;;;;;6.93;5.97;;;;;;;19.80;79.57;98130.00;5054179;28;20205;-72
2022/08/25 06:18:02;;;;;;;6.67;6.03;;;;;;;19.97;78.86;98125.06;5054005;28;20205;-71
2022/08/25 06:20:30;;;;;;;7.30;6.60;;;;;;;20.04;78.55;98128.25;5053254;28;20674;-72
2022/08/25 06:22:58;;;;;;;7.73;6.70;;;;;;;20.04;78.33;98126.38;5053634;28;20221;-71
2022/08/25 06:25:26;;;;;;;7.10;6.50;;;;;;;20.14;78.01;98122.84;5036117;28;20672;-71
2022/08/25 06:27:54;;;;;;;6.93;6.30;;;;;;;20.36;77.31;98128.66;5053462;28;20209;-71
2022/08/25 06:30:23;;;;;;;6.57;5.97;;;;;;;20.48;76.57;98129.13;5053037;28;20235;-71
2022/08/25 06:32:49;;;;;;;6.73;6.13;;;;;;;20.52;76.47;98132.91;5053797;28;20205;-71
2022/08/25 06:35:18;;;;;;;6.33;5.83;;;;;;;20.64;75.96;98119.81;5053625;28;20292;-72
2022/08/25 06:37:46;;;;;;;6.97;5.73;;;;;;;20.84;74.55;98125.09;5053480;28;20205;-72
2022/08/25 06:40:13;;;;;;;6.83;6.10;;;;;;;20.81;74.83;98114.84;5053420;28;20287;-71
2022/08/25 06:42:40;;;;;;;7.53;5.77;;;;;;;20.80;75.28;98122.13;5053385;28;20245;-71
2022/08/25 06:45:07;;;;;;;6.43;5.70;;;;;;;20.82;75.00;98127.25;5053587;28;20201;-71
2022/08/25 06:47:34;;;;;;;7.27;5.67;;;;;;;20.82;75.07;98130.78;5053207;28;20267;-71
2022/08/25 06:50:02;;;;;;;6.20;5.67;;;;;;;21.09;73.34;98133.81;5053002;28;20307;-72
2022/08/25 06:52:28;;;;;;;7.00;6.30;;;;;;;21.08;73.42;98121.41;5053546;28;20564;-71
2022/08/25 06:54:55;;;;;;;7.33;5.77;;;;;;;20.96;73.87;98122.84;5053026;28;20201;-71
2022/08/25 06:57:21;;;;;;;6.77;5.93;;;;;;;20.98;74.02;98126.88;5053036;28;20684;-71
2022/08/25 06:59:48;;;;;;;6.50;5.87;;;;;;;21.18;73.59;98125.88;5053209;28;20229;-72
2022/08/25 07:02:14;;;;;;;7.17;6.17;;;;;;;21.35;72.41;98118.16;5053292;28;20320;-72
2022/08/25 07:04:40;;;;;;;6.13;5.57;;;;;;;21.45;72.21;98115.34;5053171;28;20212;-72
2022/08/25 07:07:07;;;;;;;6.83;5.70;;;;;;;21.60;71.40;98112.44;5053391;28;20205;-72
2022/08/25 07:09:34;;;;;;;6.57;5.50;;;;;;;21.67;70.59;98112.94;5053122;28;20512;-71
2022/08/25 07:12:01;;;;;;;6.03;5.50;;;;;;;21.86;69.88;98094.84;5052901;28;20304;-72
2022/08/25 07:14:28;;;;;;;6.50;5.90;;;;;;;21.98;69.33;98106.88;5053445;28;20295;-72
2022/08/25 07:16:54;;;;;;;6.33;5.73;;;;;;;21.84;69.52;98103.25;5052933;28;20216;-72
2022/08/25 07:19:20;;;;;;;6.43;5.70;;;;;;;21.97;69.39;98099.84;5052393;28;20779;-72
2022/08/25 07:21:51;;;;;;;6.53;6.03;;;;;;;22.08;68.87;98103.22;5052579;28;20215;-71
2022/08/25 07:24:17;;;;;;;6.30;5.70;;;;;;;21.98;69.43;98103.38;5052468;28;20628;-71
2022/08/25 07:26:45;;;;;;;6.93;6.00;;;;;;;22.06;69.54;98103.53;5052755;28;20284;-71
2022/08/25 07:29:23;;;;;;;6.50;5.90;;;;;;;22.21;68.33;98102.53;5052680;28;20251;-71
2022/08/25 07:31:50;;;;;;;5.63;5.03;;;;;;;22.15;69.05;98101.00;5053061;28;20220;-71
2022/08/25 07:37:03;;;;;;;7.37;5.53;;;;;;;22.58;67.56;98084.38;5053070;28;20201;-71
2022/08/25 07:39:30;;;;;;;6.37;5.77;;;;;;;22.54;66.99;98088.78;5052939;28;20225;-71
2022/08/25 07:41:57;;;;;;;6.23;5.63;;;;;;;22.71;66.58;98090.94;5052522;28;20201;-71
2022/08/25 07:44:24;;;;;;;6.20;5.60;;;;;;;22.77;66.53;98085.16;5052907;28;20292;-72
2022/08/25 07:46:51;;;;;;;5.83;5.33;;;;;;;22.85;66.02;98094.50;5052927;28;20220;-71
2022/08/25 07:49:19;;;;;;;6.37;5.77;;;;;;;22.73;66.43;98094.16;5052735;28;20221;-72
2022/08/25 07:51:46;;;;;;;5.87;5.37;;;;;;;22.95;65.67;98097.03;5052853;28;20211;-72
2022/08/25 07:54:13;;;;;;;6.33;5.70;;;;;;;22.86;66.00;98098.81;5052610;28;20211;-71
2022/08/25 07:56:41;;;;;;;7.63;5.50;;;;;;;23.02;65.24;98097.47;5052457;28;20205;-72
2022/08/25 07:59:08;;;;;;;6.00;5.10;;;;;;;23.11;65.51;98093.78;5052476;28;20229;-72
2022/08/25 08:01:35;;;;;;;6.33;5.83;;;;;;;23.14;64.61;98092.38;5052767;28;20292;-72
2022/08/25 08:04:03;;;;;;;6.30;5.00;;;;;;;23.31;64.60;98090.75;5052372;28;20221;-72
2022/08/25 08:06:29;;;;;;;5.95;5.38;;;;;;;23.32;64.32;98097.78;5054138;28;20208;-72
2022/08/25 08:08:56;;;;;;;5.95;5.38;;;;;;;23.47;64.07;98092.03;5056283;28;20205;-72
2022/08/25 08:11:22;;;;;;;6.20;5.70;;;;;;;23.57;62.72;98091.06;5056099;28;20205;-72
2022/08/25 08:13:50;;;;;;;5.93;5.43;;;;;;;23.59;63.07;98091.53;5056375;28;20203;-71
2022/08/25 08:16:18;;;;;;;5.80;5.30;;;;;;;23.54;63.25;98088.94;5056554;28;20205;-71
2022/08/25 08:18:45;;;;;;;6.85;6.05;;;;;;;23.54;63.16;98091.66;5056002;28;20252;-72
2022/08/25 08:21:24;;;;;;;6.22;5.28;;;;;;;23.83;63.28;98092.94;5056071;28;20209;-72
2022/08/25 08:23:53;;;;;;;6.53;5.93;;;;;;;23.76;62.92;98091.75;5056320;28;20298;-72
2022/08/25 08:26:20;;;;;;;6.45;5.85;;;;;;;23.75;62.42;98090.94;5056350;28;20209;-71
2022/08/25 08:28:46;;;;;;;6.10;5.43;;;;;;;23.94;62.11;98085.44;5056169;28;20205;-72
2022/08/25 08:31:14;;;;;;;6.53;5.38;;;;;;;24.08;61.96;98075.34;5056407;28;20213;-72
2022/08/25 08:33:41;;;;;;;5.70;5.20;;;;;;;24.25;60.82;98084.47;5055961;28;20201;-72
2022/08/25 08:36:10;;;;;;;6.18;5.43;;;;;;;24.19;60.96;98079.47;5056040;28;20205;-72
2022/08/25 08:38:39;;;;;;;5.97;5.45;;;;;;;24.05;61.40;98082.19;5056207;28;20578;-72
2022/08/25 08:44:20;;;;;;;5.28;4.78;;;;;;;24.13;61.38;98080.66;5055619;28;20208;-72
2022/08/25 08:47:05;;;;;;;5.45;4.95;;;;;;;24.45;59.88;98075.03;5038251;28;20276;-72
2022/08/25 08:49:44;;;;;;;6.10;5.50;;;;;;;24.43;59.25;98071.84;5055704;28;20235;-72
2022/08/25 08:52:14;;;;;;;6.15;5.55;;;;;;;24.57;59.13;98069.88;5056020;28;20191;-72
2022/08/25 08:54:44;;;;;;;5.53;5.03;;;;;;;24.54;59.22;98065.03;5038183;28;20194;-72
2022/08/25 08:57:17;;;;;;;7.38;6.68;;;;;;;24.72;59.03;98054.03;5055818;28;20204;-72
2022/08/25 08:59:49;;;;;;;5.57;5.05;;;;;;;24.95;58.21;98066.50;5055566;28;20596;-72
2022/08/25 09:02:51;;;;;;;5.55;4.75;;;;;;;25.20;56.72;98073.19;5037878;28;20276;-72
2022/08/25 09:05:19;;;;;;;5.35;4.95;;;;;;;25.17;56.74;98068.38;5055436;28;20200;-72
2022/08/25 09:07:53;;;;;;;5.80;5.30;;;;;;;25.21;57.01;98066.63;5055088;28;20292;-72
2022/08/25 09:10:21;;;;;;;5.10;4.60;;;;;;;25.33;55.42;98064.16;5055729;28;20235;-72
2022/08/25 09:13:24;;;;;;;5.70;5.15;;;;;;;25.54;55.73;98062.47;5055502;28;20288;-72
2022/08/25 09:19:30;;;;;;;5.22;4.82;;;;;;;25.66;53.79;98054.53;5039689;28;20185;-72
2022/08/25 09:22:12;;;;;;;5.32;4.90;;;;;;;25.70;54.33;98055.50;5055346;28;20205;-71
2022/08/25 09:25:15;;;;;;;5.03;4.63;;;;;;;25.64;54.80;98054.84;5037607;28;20280;-72
2022/08/25 09:28:00;;;;;;;5.68;4.97;;;;;;;25.81;54.25;98054.06;5037099;28;20235;-72
2022/08/25 09:30:32;;;;;;;5.32;4.82;;;;;;;25.84;53.33;98048.00;5055409;28;20240;-72
2022/08/25 09:33:03;;;;;;;5.57;5.13;;;;;;;25.91;53.35;98048.34;5055265;28;20192;-72
2022/08/25 09:35:35;;;;;;;6.93;6.22;;;;;;;26.11;53.14;98045.03;5054695;28;20637;-72
2022/08/25 09:38:09;;;;;;;5.57;4.93;;;;;;;26.33;52.41;98037.50;5054690;28;20709;-72
2022/08/25 09:40:44;;;;;;;5.30;4.90;;;;;;;26.47;52.33;98043.59;5054933;28;20229;-72
2022/08/25 09:43:29;;;;;;;5.50;5.00;;;;;;;26.73;50.83;98043.63;5054728;28;20212;-72
2022/08/25 09:46:00;;;;;;;5.63;5.13;;;;;;;26.63;50.57;98035.75;5054433;28;20189;-73
2022/08/25 09:48:30;;;;;;;4.93;4.32;;;;;;;26.64;50.54;98032.72;5054326;28;20751;-72
2022/08/25 09:51:10;;;;;;;5.53;5.03;;;;;;;26.50;51.16;98036.72;5054061;28;20584;-72
2022/08/25 09:53:51;;;;;;;5.95;4.85;;;;;;;26.96;50.41;98040.34;5054632;28;20186;-72
2022/08/25 09:56:20;;;;;;;7.50;5.53;;;;;;;26.87;50.01;98031.38;5054607;28;20196;-72
2022/08/25 09:58:47;;;;;;;6.88;4.78;;;;;;;27.00;50.01;98024.94;5054351;28;20391;-72
2022/08/25 10:01:19;;;;;;;5.03;4.50;;;;;;;27.10;50.00;98023.78;5054643;28;20216;-72
2022/08/25 10:04:04;;;;;;;5.40;5.00;;;;;;;27.30;49.24;98022.31;5054368;28;20654;-72
2022/08/25 10:06:45;;;;;;;5.00;4.60;;;;;;;27.13;49.52;98023.13;5054233;28;20280;-72
2022/08/25 10:09:28;;;;;;;5.15;4.70;;;;;;;27.08;49.04;98015.13;5054068;28;20727;-73
2022/08/25 10:11:55;;;;;;;5.28;4.78;;;;;;;27.22;49.28;98018.47;5054115;28;20198;-73
2022/08/25 10:14:37;;;;;;;5.50;5.00;;;;;;;27.25;48.55;98012.34;5054077;28;20208;-72
2022/08/25 10:17:15;;;;;;;5.13;4.55;;;;;;;27.29;48.01;98013.31;5054077;28;20272;-72
2022/08/25 10:19:42;;;;;;;5.90;5.25;;;;;;;27.34;48.39;98015.03;5053489;28;20274;-72
2022/08/25 10:22:23;;;;;;;5.97;5.35;;;;;;;27.18;48.84;98009.31;5054141;28;20201;-72
2022/08/25 10:24:50;;;;;;;6.30;5.75;;;;;;;27.11;49.24;98003.56;5053277;28;20308;-72
2022/08/25 10:27:45;;;;;;;4.97;4.57;;;;;;;27.49;48.61;98004.38;5053344;28;20299;-72
2022/08/25 10:30:21;;;;;;;5.25;4.85;;;;;;;27.67;48.46;97997.69;5052406;28;20237;-72
2022/08/25 10:33:12;;;;;;;5.93;5.40;;;;;;;27.35;48.40;97997.56;5035775;28;20272;-72
2022/08/25 10:36:14;;;;;;;5.40;5.00;;;;;;;26.75;49.65;97990.34;5053741;28;20276;-72
2022/08/25 10:38:51;;;;;;;4.95;4.55;;;;;;;27.00;48.72;97983.22;5038453;28;20200;-72
2022/08/25 10:41:28;;;;;;;5.47;5.00;;;;;;;26.51;49.71;97984.56;5053792;28;20203;-72
2022/08/25 10:44:04;;;;;;;4.93;4.53;;;;;;;26.99;49.23;97976.94;5053965;28;20208;-72
2022/08/25 10:46:55;;;;;;;5.75;4.80;;;;;;;27.24;48.40;97985.38;5053378;28;20193;-71
2022/08/25 10:49:37;;;;;;;4.82;4.40;;;;;;;26.94;49.17;97970.84;5052998;28;20666;-71
2022/08/25 10:52:11;;;;;;;5.28;4.80;;;;;;;27.17;48.93;97968.69;5037222;28;20185;-72
2022/08/25 10:54:55;;;;;;;4.88;4.57;;;;;;;27.31;47.85;97972.03;5053510;28;20207;-72
2022/08/25 10:57:48;;;;;;;5.30;4.68;;;;;;;27.53;47.29;97969.81;5053395;28;20735;-72
2022/08/25 11:00:21;;;;;;;5.35;4.95;;;;;;;27.84;46.93;97962.09;5053234;28;20755;-72
2022/08/25 11:03:15;;;;;;;4.57;4.18;;;;;;;27.66;46.50;97971.50;5035891;28;20197;-72
2022/08/25 11:06:07;;;;;;;4.78;4.38;;;;;;;27.51;47.27;97950.25;5053608;28;20280;-72
2022/08/25 11:08:36;;;;;;;5.32;4.82;;;;;;;27.92;45.84;97954.97;5042252;28;20205;-72
2022/08/25 11:11:26;;;;;;;5.20;4.53;;;;;;;27.58;46.14;97952.44;5052907;28;20767;-72
2022/08/25 11:14:11;;;;;;;6.05;5.45;;;;;;;27.27;46.92;97952.78;5042582;28;20690;-72
2022/08/25 11:16:47;;;;;;;4.85;4.45;;;;;;;26.62;48.16;97952.34;5052972;28;20193;-72
2022/08/25 11:19:16;;;;;;;5.90;4.35;;;;;;;26.55;48.94;97944.63;5053142;28;20229;-72
2022/08/25 11:21:51;;;;;;;4.95;4.55;;;;;;;26.80;48.38;97938.34;5053216;28;20205;-72
2022/08/25 11:24:18;;;;;;;5.88;5.20;;;;;;;27.44;46.58;97946.44;5053077;28;20209;-72
2022/08/25 11:26:51;;;;;;;4.78;4.30;;;;;;;27.62;46.06;97943.25;5052958;28;20204;-72
2022/08/25 11:29:21;;;;;;;4.82;4.28;;;;;;;27.89;45.55;97939.25;5036128;28;20229;-71
2022/08/25 11:31:53;;;;;;;4.70;4.38;;;;;;;27.90;45.28;97938.91;5052898;28;20201;-71
2022/08/25 11:34:21;;;;;;;5.10;4.60;;;;;;;27.78;45.63;97933.34;5052866;28;20205;-72
2022/08/25 11:37:02;;;;;;;5.07;4.45;;;;;;;27.55;45.21;97923.88;5052902;28;20209;-72
2022/08/25 11:39:47;;;;;;;4.53;4.13;;;;;;;27.20;46.32;97925.19;5052967;28;20225;-72
2022/08/25 11:42:41;;;;;;;4.68;4.25;;;;;;;27.17;46.47;97926.63;5055290;28;20672;-72
2022/08/25 11:45:10;;;;;;;4.10;3.83;;;;;;;27.17;46.51;97931.28;5057097;28;20302;-72
2022/08/25 11:47:43;;;;;;;11.75;10.65;;;;;;;27.21;46.47;97928.72;5056848;28;20292;-72
2022/08/25 11:50:30;;;;;;;4.75;4.35;;;;;;;27.48;45.38;97922.81;5056829;28;20227;-72
2022/08/25 11:53:02;;;;;;;4.32;4.00;;;;;;;27.78;45.06;97916.16;5040064;28;20284;-72
2022/08/25 11:55:35;;;;;;;4.80;3.35;;;;;;;28.14;43.46;97916.34;5056982;28;20275;-72
2022/08/25 11:58:28;;;;;;;7.50;3.78;;;;;;;28.43;42.39;97917.06;5056239;28;20296;-72
2022/08/25 12:00:57;;;;;;;3.53;3.30;;;;;;;28.76;41.63;97925.25;5056929;28;20312;-72
2022/08/25 12:03:32;;;;;;;3.45;3.25;;;;;;;28.47;41.51;97923.47;5056666;28;20311;-72